Time;durP1;ratioP1;P1;durP2;ratioP2;P2;SDS_P1;SDS_P2;PMS_P1;PMS_P2;Temp;Humidity;BMP_temperature;BMP_pressure;BME280_temperature;BME280_humidity;BME280_pressure;Samples;Min_cycle;Max_cycle;Signal;HPM_P1;HPM_P2
2022/12/09 00:00:27;;;;;;;;;44.00;35.50;;;;;8.47;69.25;-19439.38;5013261;28;45258;-92
2022/12/09 00:02:53;;;;;;;;;35.00;27.25;;;;;7.43;69.31;-19411.91;5015327;28;45510;-93
2022/12/09 00:05:18;;;;;;;;;41.00;35.50;;;;;7.96;69.00;-19425.97;4994179;28;45614;-91
2022/12/09 00:07:44;;;;;;;;;38.00;33.00;;;;;7.63;69.03;-19417.19;5010165;28;47538;-91
2022/12/09 00:10:09;;;;;;;;;39.25;35.00;;;;;7.35;69.00;-19409.72;5011639;28;45380;-92
2022/12/09 00:12:35;;;;;;;;;32.50;32.50;;;;;8.04;68.91;-19428.00;5014371;28;45574;-91
2022/12/09 00:15:06;;;;;;;;;26.50;26.50;;;;;7.71;69.24;-19419.22;5017959;28;45499;-95
2022/12/09 00:17:32;;;;;;;;;32.50;29.50;;;;;6.71;69.09;-19392.94;5021012;28;48678;-96
2022/12/09 00:19:57;;;;;;;;;40.00;34.75;;;;;6.88;69.03;-19397.28;5018374;28;45309;-96
2022/12/09 00:22:25;;;;;;;;;35.75;30.00;;;;;7.28;68.88;-19407.97;5001962;28;45474;-95
2022/12/09 00:24:54;;;;;;;;;34.67;29.00;;;;;8.46;69.07;-19439.09;5024711;28;45471;-96
2022/12/09 00:27:19;;;;;;;;;32.75;30.75;;;;;7.62;69.02;-19416.91;5050441;28;46812;-96
2022/12/09 00:38:03;;;;;;;;;40.25;34.50;;;;;8.44;68.90;-19438.56;5032484;28;45518;-91
2022/12/09 00:43:04;;;;;;;;;35.50;33.75;;;;;8.43;68.69;-19438.41;5425609;22;45563;-91
2022/12/09 00:45:29;;;;;;;;;38.75;34.00;;;;;8.20;68.55;-19432.31;5010567;28;45512;-91
2022/12/09 00:47:54;;;;;;;;;37.00;31.00;;;;;7.23;68.49;-19406.47;5008176;28;45821;-91
2022/12/09 00:50:20;;;;;;;;;34.00;29.25;;;;;7.28;68.53;-19407.97;5026339;28;45480;-91
2022/12/09 00:52:45;;;;;;;;;36.20;31.80;;;;;7.27;68.31;-19407.56;5462756;22;1372872;-90
2022/12/09 00:55:14;;;;;;;;;37.50;33.75;;;;;6.57;68.68;-19389.16;5051298;28;45598;-90
2022/12/09 00:57:39;;;;;;;;;37.75;31.25;;;;;7.66;68.50;-19417.84;5037354;22;46536;-90
2022/12/09 01:00:05;;;;;;;;;35.33;32.33;;;;;7.85;68.76;-19423.00;5034307;28;45457;-91
2022/12/09 01:02:31;;;;;;;;;33.75;29.75;;;;;8.10;68.57;-19429.47;5048914;28;45474;-91
2022/12/09 01:04:56;;;;;;;;;35.75;30.50;;;;;7.63;68.35;-19417.19;5034576;28;45709;-89
2022/12/09 01:07:22;;;;;;;;;39.75;32.00;;;;;8.11;68.50;-19429.91;5040047;28;46869;-90
2022/12/09 01:09:47;;;;;;;;;34.67;29.67;;;;;7.27;68.16;-19407.56;5036359;28;45430;-90
2022/12/09 01:12:13;;;;;;;;;36.50;31.00;;;;;8.12;68.57;-19430.16;5046777;28;45871;-91
2022/12/09 01:14:38;;;;;;;;;29.75;25.75;;;;;8.40;68.58;-19437.59;5033572;28;45301;-91
2022/12/09 01:17:04;;;;;;;;;38.25;32.00;;;;;8.39;68.27;-19437.34;5033430;28;48411;-90
2022/12/09 01:19:29;;;;;;;;;36.00;30.25;;;;;7.85;68.06;-19423.00;5038793;28;45445;-91
2022/12/09 01:21:55;;;;;;;;;35.50;31.50;;;;;7.77;67.86;-19420.97;5059627;28;45442;-94
2022/12/09 01:24:21;;;;;;;;;34.00;32.00;;;;;7.87;68.12;-19423.41;5054945;28;45431;-92
2022/12/09 01:26:46;;;;;;;;;31.00;30.00;;;;;8.37;67.98;-19436.66;5056737;28;48129;-94
2022/12/09 01:29:12;;;;;;;;;31.00;28.67;;;;;7.80;68.15;-19421.66;5039947;28;45457;-93
2022/12/09 01:31:37;;;;;;;;;31.00;27.67;;;;;7.78;68.24;-19421.22;5059791;28;45380;-93
2022/12/09 01:34:03;;;;;;;;;31.67;28.33;;;;;7.18;68.41;-19405.41;5054655;28;45456;-93
2022/12/09 01:36:29;;;;;;;;;32.00;27.33;;;;;7.85;68.48;-19423.00;5037823;28;47289;-94
2022/12/09 01:38:56;;;;;;;;;30.67;26.67;;;;;8.34;68.20;-19435.97;5034171;28;45845;-92
2022/12/09 01:41:22;;;;;;;;;31.75;30.25;;;;;6.66;67.74;-19391.59;5054423;28;45544;-94
2022/12/09 01:44:19;;;;;;;;;32.67;29.00;;;;;8.31;68.02;-19435.16;5041490;28;45355;-96
2022/12/09 01:46:45;;;;;;;;;26.25;21.00;;;;;7.80;68.25;-19421.78;5038720;28;48215;-95
2022/12/09 01:49:19;;;;;;;;;30.67;26.00;;;;;8.31;67.93;-19435.03;5038221;28;45399;-94
2022/12/09 01:51:51;;;;;;;;;36.00;30.33;;;;;8.29;67.84;-19434.63;5055246;28;45363;-96
2022/12/09 01:54:17;;;;;;;;;35.00;26.00;;;;;7.89;67.90;-19423.94;5040972;28;45431;-92
2022/12/09 01:56:42;;;;;;;;;25.33;25.33;;;;;8.25;67.55;-19433.69;5056468;28;47338;-90
2022/12/09 01:59:11;;;;;;;;;30.67;27.33;;;;;7.65;67.58;-19417.59;5051545;28;45397;-91
2022/12/09 02:01:38;;;;;;;;;28.67;25.00;;;;;7.51;67.88;-19414.06;5052848;28;45556;-91
2022/12/09 02:04:04;;;;;;;;;30.00;25.67;;;;;7.71;67.86;-19419.34;5057749;28;45450;-90
2022/12/09 02:06:30;;;;;;;;;31.50;24.00;;;;;8.09;67.54;-19429.34;5046603;28;46676;-91
2022/12/09 02:08:56;;;;;;;;;35.33;29.33;;;;;7.73;67.57;-19419.75;5034109;28;45544;-91
2022/12/09 02:11:43;;;;;;;;;32.00;26.00;;;;;8.18;67.88;-19431.78;5036231;28;45336;-90
2022/12/09 02:14:31;;;;;;;;;31.00;26.33;;;;;8.18;67.63;-19431.78;5035154;28;45535;-90
2022/12/09 02:17:26;;;;;;;;;29.00;24.67;;;;;8.13;67.96;-19430.44;5049032;28;47042;-90
2022/12/09 02:20:02;;;;;;;;;28.33;25.33;;;;;8.12;67.69;-19430.03;5023630;28;45586;-90
2022/12/09 02:22:39;;;;;;;;;30.00;25.67;;;;;7.01;67.49;-19400.78;5027282;28;45329;-90
2022/12/09 02:25:16;;;;;;;;;37.33;30.33;;;;;8.07;67.73;-19428.81;5034097;28;45700;-91
2022/12/09 02:27:48;;;;;;;;;35.00;30.00;;;;;7.00;67.75;-19400.53;5053790;28;48482;-89
2022/12/09 02:30:20;;;;;;;;;25.67;24.00;;;;;7.75;67.92;-19420.44;5053539;28;46329;-90
2022/12/09 02:32:57;;;;;;;;;27.67;24.00;;;;;8.07;67.81;-19428.69;5045749;28;46212;-90
2022/12/09 02:35:30;;;;;;;;;36.00;26.33;;;;;8.04;68.08;-19428.13;5036666;28;45890;-90
2022/12/09 02:37:59;;;;;;;;;37.00;29.00;;;;;8.00;68.03;-19426.91;5051899;28;47805;-91
2022/12/09 02:40:34;;;;;;;;;38.33;31.67;;;;;7.67;67.90;-19418.13;5041514;28;45579;-91
2022/12/09 02:43:04;;;;;;;;;30.00;26.00;;;;;8.00;67.80;-19426.91;5048284;28;45485;-93
2022/12/09 02:45:30;;;;;;;;;29.33;28.33;;;;;7.39;68.12;-19410.81;5037957;28;45379;-92
2022/12/09 02:48:00;;;;;;;;;32.00;29.75;;;;;6.04;67.57;-19375.06;5035330;28;48076;-92
2022/12/09 02:50:31;;;;;;;;;33.33;28.67;;;;;7.40;67.64;-19411.22;5036361;28;45827;-91
2022/12/09 02:53:00;;;;;;;;;35.67;29.33;;;;;7.17;67.88;-19405.00;5036448;28;45355;-92
2022/12/09 02:55:27;;;;;;;;;30.33;25.00;;;;;7.86;67.69;-19423.13;5051699;28;45556;-91
2022/12/09 02:57:58;;;;;;;;;30.67;24.00;;;;;6.01;67.71;-19374.25;5032544;28;47418;-91
2022/12/09 03:00:24;;;;;;;;;29.00;23.00;;;;;6.66;67.45;-19391.59;5015945;28;45470;-91
2022/12/09 03:02:54;;;;;;;;;29.00;24.67;;;;;7.49;67.69;-19413.38;5014021;28;45472;-91
2022/12/09 03:05:29;;;;;;;;;34.00;30.50;;;;;6.96;67.95;-19399.56;5018244;28;46251;-91
2022/12/09 03:08:13;;;;;;;;;33.00;26.33;;;;;7.82;67.60;-19422.19;5006811;28;47663;-93
2022/12/09 03:10:52;;;;;;;;;32.67;28.67;;;;;6.70;67.60;-19390.59;5030381;28;45518;-90
2022/12/09 03:13:52;;;;;;;;;29.33;25.67;;;;;6.84;67.83;-19394.41;5015749;28;45400;-92
2022/12/09 03:16:28;;;;;;;;;29.33;23.67;;;;;6.75;68.22;-19393.88;5028231;28;45273;-91
2022/12/09 03:18:59;;;;;;;;;25.33;18.33;;;;;7.40;68.45;-19411.22;5036261;28;45682;-91
2022/12/09 03:21:27;;;;;;;;;23.33;20.00;;;;;6.80;68.65;-19395.25;5013113;28;45805;-92
2022/12/09 03:23:55;;;;;;;;;25.00;19.33;;;;;6.47;68.39;-19386.56;5017957;28;45319;-92
2022/12/09 03:26:25;;;;;;;;;22.67;20.33;;;;;6.55;68.60;-19388.59;5035824;28;45369;-92
2022/12/09 03:28:54;;;;;;;;;23.67;21.67;;;;;6.20;68.75;-19379.38;5034068;28;47168;-92
2022/12/09 03:31:24;;;;;;;;;25.00;20.67;;;;;6.41;68.23;-19384.94;5015417;28;46167;-91
2022/12/09 03:33:52;;;;;;;;;26.33;21.33;;;;;7.00;68.02;-19400.53;5035837;28;45414;-91
2022/12/09 03:36:21;;;;;;;;;22.00;21.67;;;;;7.16;68.27;-19402.94;5018621;28;45623;-91
2022/12/09 03:38:48;;;;;;;;;27.33;24.00;;;;;7.43;68.08;-19409.97;5018640;28;48718;-92
2022/12/09 03:41:29;;;;;;;;;24.00;20.33;;;;;7.38;68.04;-19408.63;5034104;28;46042;-93
2022/12/09 03:44:03;;;;;;;;;21.00;17.67;;;;;6.61;67.98;-19388.31;5019624;28;45376;-95
2022/12/09 03:46:32;;;;;;;;;22.67;17.67;;;;;7.42;68.23;-19409.69;5025425;28;45527;-94
2022/12/09 03:48:57;;;;;;;;;20.67;19.00;;;;;6.33;67.60;-19381.00;5011745;28;48114;-94
2022/12/09 03:51:52;;;;;;;;;23.00;20.00;;;;;7.48;67.86;-19411.31;5019394;28;45902;-94
2022/12/09 03:54:27;;;;;;;;;22.00;20.33;;;;;7.48;67.81;-19411.31;5016841;28;45519;-94
2022/12/09 03:56:57;;;;;;;;;19.00;17.00;;;;;7.48;68.07;-19411.19;5034222;28;45639;-95
2022/12/09 03:59:26;;;;;;;;;21.67;19.67;;;;;5.38;67.43;-19355.63;5053504;28;47494;-94
2022/12/09 04:01:53;;;;;;;;;24.67;19.00;;;;;6.67;67.41;-19389.94;5037467;28;45539;-96
2022/12/09 04:04:19;;;;;;;;;20.67;18.00;;;;;6.28;67.21;-19379.63;5039259;28;45459;-95
2022/12/09 04:06:46;;;;;;;;;18.00;17.00;;;;;5.61;67.26;-19361.88;5039248;28;45533;-94
2022/12/09 04:09:11;;;;;;;;;19.00;17.00;;;;;7.38;67.69;-19408.63;5038280;28;48124;-92
2022/12/09 04:11:37;;;;;;;;;19.33;16.00;;;;;6.95;67.28;-19068.41;5039104;28;45956;-93
2022/12/09 04:14:02;;;;;;;;;18.33;15.67;;;;;7.31;67.52;-19077.72;5038532;28;45558;-91
2022/12/09 04:16:28;;;;;;;;;20.33;19.67;;;;;6.43;67.19;-19054.75;5035335;28;45408;-92
2022/12/09 04:18:54;;;;;;;;;15.00;12.67;;;;;6.32;67.47;-19051.97;5051978;28;46922;-93
2022/12/09 04:21:19;;;;;;;;;21.67;19.00;;;;;5.41;67.42;-19028.44;5054093;28;45944;-92
2022/12/09 04:23:44;;;;;;;;;23.00;18.67;;;;;6.07;67.54;-19045.44;5038296;28;45952;-92
2022/12/09 04:26:16;;;;;;;;;19.67;19.33;;;;;6.60;67.15;-19059.25;5055804;28;45294;-91
2022/12/09 04:28:41;;;;;;;;;19.33;15.67;;;;;5.98;67.51;-19043.19;5035986;28;47429;-91
2022/12/09 04:31:15;;;;;;;;;18.00;16.33;;;;;6.12;67.26;-19046.91;5048150;28;45414;-91
2022/12/09 04:33:41;;;;;;;;;20.33;19.67;;;;;6.39;67.12;-18725.13;5054259;28;45646;-91
2022/12/09 04:36:09;;;;;;;;;22.00;15.00;;;;;6.84;67.12;-18736.56;5055185;28;45533;-92
2022/12/09 04:38:34;;;;;;;;;23.33;20.33;;;;;6.66;67.19;-18732.00;5042820;28;46537;-92
2022/12/09 04:41:00;;;;;;;;;18.00;16.00;;;;;6.78;67.18;-18735.00;5037101;28;45525;-91
2022/12/09 04:43:25;;;;;;;;;15.67;15.33;;;;;6.19;67.08;-18720.06;5052021;28;45426;-92
2022/12/09 04:45:51;;;;;;;;;16.00;15.67;;;;;6.76;67.09;-18734.47;5036492;28;45546;-94
2022/12/09 04:48:16;;;;;;;;;20.67;18.67;;;;;7.15;67.08;-18744.38;5038759;28;48494;-93
2022/12/09 04:50:42;;;;;;;;;23.00;20.33;;;;;5.98;66.77;-18714.72;5037286;28;45462;-95
2022/12/09 04:53:08;;;;;;;;;16.67;16.67;;;;;7.08;67.11;-18742.53;5040328;28;45433;-95
2022/12/09 04:55:33;;;;;;;;;18.00;16.67;;;;;6.28;66.99;-18722.25;5041866;28;45594;-93
2022/12/09 04:57:58;;;;;;;;;17.67;15.00;;;;;6.85;66.81;-18736.69;5038542;28;47909;-95
2022/12/09 05:00:24;;;;;;;;;23.67;19.33;;;;;7.04;66.73;-18741.50;5037643;28;45499;-94
2022/12/09 05:02:49;;;;;;;;;27.33;20.00;;;;;7.04;66.73;-18412.44;5038150;28;45442;-94
2022/12/09 05:05:15;;;;;;;;;13.33;12.67;;;;;6.62;66.59;-18402.00;5039464;28;45435;-94
2022/12/09 05:07:40;;;;;;;;;18.67;14.67;;;;;5.80;66.46;-18381.63;5038180;28;47080;-94
2022/12/09 05:10:06;;;;;;;;;16.00;15.33;;;;;5.53;66.26;-18375.00;5054191;28;45747;-94
2022/12/09 05:12:32;;;;;;;;;20.00;15.33;;;;;6.32;66.62;-18394.75;5037815;28;45430;-94
2022/12/09 05:14:58;;;;;;;;;18.00;18.00;;;;;5.12;66.44;-18036.59;5039335;28;45593;-95
2022/12/09 05:17:24;;;;;;;;;14.00;12.00;;;;;4.67;66.31;-18025.59;5052684;28;47648;-95
2022/12/09 05:19:50;;;;;;;;;22.00;17.67;;;;;4.80;65.97;-18028.97;5032070;28;45916;-96
2022/12/09 05:28:12;;;;;;;;;19.33;16.33;;;;;6.07;65.81;-17731.31;5033842;28;45369;-90
2022/12/09 05:33:13;;;;;;;;;11.00;11.00;;;;;6.28;65.92;-17407.44;5066908;22;47201;-94
2022/12/09 05:35:38;;;;;;;;;18.67;16.00;;;;;5.86;65.98;-17397.78;5038224;28;45354;-92
2022/12/09 05:38:04;;;;;;;;;18.00;16.67;;;;;6.30;66.01;-17408.03;5020787;28;46921;-92
2022/12/09 05:40:29;;;;;;;;;16.67;13.00;;;;;6.47;65.74;-17411.97;5018969;28;45342;-91
2022/12/09 05:42:54;;;;;;;;;12.33;12.33;;;;;6.66;65.75;-17087.41;5035972;28;45505;-92
2022/12/09 05:45:20;;;;;;;;;16.33;14.00;;;;;5.50;65.50;-17060.94;5021927;28;45595;-92
2022/12/09 05:47:45;;;;;;;;;17.00;15.00;;;;;5.75;65.47;-17066.66;5031070;28;46805;-91
2022/12/09 05:50:11;;;;;;;;;18.67;17.33;;;;;6.18;65.45;-17076.34;5027878;28;45349;-90
2022/12/09 05:52:37;;;;;;;;;22.00;15.67;;;;;5.81;65.58;-17067.94;5033968;28;45400;-90
2022/12/09 05:55:07;;;;;;;;;22.33;18.00;;;;;6.06;65.65;-17073.66;5042375;28;45568;-91
2022/12/09 05:57:33;;;;;;;;;14.33;14.33;;;;;5.68;65.78;-17065.13;5013822;28;48252;-90
2022/12/09 05:59:58;;;;;;;;;19.33;15.67;;;;;6.06;65.67;-17073.78;5022351;28;45446;-90
2022/12/09 06:02:24;;;;;;;;;19.67;17.67;;;;;6.21;65.78;-17077.16;5024423;28;45838;-93
2022/12/09 06:04:49;;;;;;;;;15.33;14.33;;;;;5.06;65.59;-17050.91;5005240;28;45492;-94
2022/12/09 06:07:14;;;;;;;;;17.33;15.67;;;;;6.04;65.58;-17073.19;5009011;28;48346;-95
2022/12/09 06:09:40;;;;;;;;;16.33;15.33;;;;;6.27;65.40;-16749.63;5017588;28;45535;-91
2022/12/09 06:12:05;;;;;;;;;21.67;18.33;;;;;5.44;65.01;-16731.19;5016954;28;45482;-91
2022/12/09 06:14:31;;;;;;;;;18.00;15.33;;;;;6.61;65.34;-16757.25;5024196;28;45537;-93
2022/12/09 06:16:56;;;;;;;;;19.33;15.67;;;;;5.36;65.23;-16401.13;5018992;28;48005;-93
2022/12/09 06:19:22;;;;;;;;;19.33;17.33;;;;;5.63;65.29;-16406.91;5035696;28;45679;-93
2022/12/09 06:21:47;;;;;;;;;20.33;17.00;;;;;5.96;65.02;-16085.34;5037575;28;45341;-93
2022/12/09 06:24:12;;;;;;;;;25.00;17.00;;;;;6.02;65.16;-16415.38;5018449;28;45533;-94
2022/12/09 06:26:38;;;;;;;;;21.00;17.67;;;;;6.46;65.19;-16096.06;5031916;28;48185;-94
2022/12/09 06:29:03;;;;;;;;;21.33;15.67;;;;;5.30;65.31;-16399.78;5038003;28;45445;-94
2022/12/09 06:31:30;;;;;;;;;21.00;16.33;;;;;5.87;65.26;-16083.59;5036907;28;45542;-95
2022/12/09 06:33:55;;;;;;;;;19.33;16.33;;;;;4.51;65.09;-16054.59;5020146;28;45542;-94
2022/12/09 06:36:21;;;;;;;;;18.33;17.33;;;;;6.18;64.73;-15761.16;5032889;28;47243;-95
2022/12/09 06:38:47;;;;;;;;;20.00;17.67;;;;;6.42;64.76;-15766.13;5035503;28;46070;-95
2022/12/09 06:41:14;;;;;;;;;19.67;18.67;;;;;4.27;64.66;-15393.81;5035766;28;45415;-96
2022/12/09 06:43:40;;;;;;;;;19.67;17.00;;;;;4.52;64.53;-15399.00;5044698;28;45316;-96
2022/12/09 06:46:14;;;;;;;;;10.67;10.67;;;;;5.62;64.50;-15421.06;5025839;28;47715;-96
2022/12/09 06:48:43;;;;;;;;;20.33;18.00;;;;;5.42;64.93;-15417.16;5027749;28;44816;-96
2022/12/09 06:51:09;;;;;;;;;15.33;13.67;;;;;4.42;64.62;-15068.97;5036313;28;45577;-96
2022/12/09 06:56:07;;;;;;;;;21.33;18.33;;;;;4.22;64.19;-15065.13;5008546;28;45834;-96
2022/12/09 06:58:34;;;;;;;;;24.00;18.00;;;;;5.87;64.23;-14768.72;5021915;28;44676;-96
2022/12/09 07:01:10;;;;;;;;;21.67;18.00;;;;;6.00;64.08;-14442.22;4978230;28;45360;-92
2022/12/09 07:03:35;;;;;;;;;19.33;16.33;;;;;5.38;64.12;-14759.25;4993781;28;45504;-93
2022/12/09 07:06:01;;;;;;;;;19.33;17.67;;;;;5.88;63.85;-14440.13;4993350;28;47029;-91
2022/12/09 07:08:27;;;;;;;;;17.33;15.00;;;;;5.70;63.94;-14436.81;4988182;28;45433;-93
2022/12/09 07:10:53;;;;;;;;;12.67;8.67;;;;;5.33;63.96;-14429.78;5005981;28;45479;-92
2022/12/09 07:13:18;;;;;;;;;20.67;19.33;;;;;5.01;63.64;-14423.91;4979516;28;45612;-90
2022/12/09 07:15:43;;;;;;;;;23.67;19.00;;;;;5.36;63.52;-14430.47;4981842;28;48535;-90
2022/12/09 07:18:09;;;;;;;;;23.33;19.67;;;;;4.35;63.74;-14083.63;5008891;28;46071;-93
2022/12/09 07:20:34;;;;;;;;;21.33;21.33;;;;;5.58;64.08;-14434.53;4996179;28;45621;-91
2022/12/09 07:23:00;;;;;;;;;26.75;26.50;;;;;5.36;63.83;-14430.47;4998840;28;45455;-92
2022/12/09 07:25:25;;;;;;;;;22.50;18.50;;;;;6.02;64.25;-14442.63;4996729;28;46915;-91
2022/12/09 07:27:50;;;;;;;;;27.00;24.25;;;;;6.25;64.12;-14446.97;4979702;28;45553;-93
2022/12/09 07:30:16;;;;;;;;;21.00;17.67;;;;;5.95;64.00;-14441.28;4994650;28;45431;-93
2022/12/09 07:32:41;;;;;;;;;25.00;21.00;;;;;5.70;63.98;-14108.09;4997077;28;45317;-91
2022/12/09 07:35:07;;;;;;;;;20.67;19.00;;;;;6.28;63.91;-14118.50;5006309;28;46937;-93
2022/12/09 07:37:33;;;;;;;;;28.00;19.67;;;;;5.71;63.89;-14108.28;5006793;28;45586;-93
2022/12/09 07:39:58;;;;;;;;;20.50;19.00;;;;;5.82;64.09;-14110.22;4993724;28;45524;-92
2022/12/09 07:42:23;;;;;;;;;22.50;20.25;;;;;5.31;64.02;-14100.91;4983542;28;45388;-92
2022/12/09 07:44:49;;;;;;;;;23.00;21.25;;;;;6.18;64.31;-14445.66;4981216;28;47389;-92
2022/12/09 07:47:14;;;;;;;;;19.50;17.25;;;;;6.27;64.31;-14447.25;4980593;28;45400;-92
2022/12/09 07:49:39;;;;;;;;;20.50;19.25;;;;;6.10;63.80;-14115.28;4980799;28;45432;-92
2022/12/09 07:52:05;;;;;;;;;21.25;21.25;;;;;5.89;63.55;-14111.50;4998626;28;45551;-90
2022/12/09 07:54:30;;;;;;;;;24.75;21.75;;;;;5.92;63.65;-14111.97;5008912;28;47507;-91
2022/12/09 07:56:56;;;;;;;;;26.75;25.25;;;;;5.45;63.52;-13774.84;4993592;28;46011;-93
2022/12/09 07:59:21;;;;;;;;;16.50;14.00;;;;;6.39;63.34;-13791.25;4986830;28;45433;-92
2022/12/09 08:01:46;;;;;;;;;22.00;20.00;;;;;6.38;63.32;-13791.16;4998976;28;45649;-93
2022/12/09 08:04:12;;;;;;;;;28.33;18.33;;;;;5.98;63.61;-13455.16;4979991;28;48007;-92
2022/12/09 08:06:38;;;;;;;;;17.67;17.00;;;;;6.32;63.26;-13460.97;4997095;28;45408;-92
2022/12/09 08:09:06;;;;;;;;;26.25;20.50;;;;;6.28;63.42;-13460.28;4979709;28;45345;-91
2022/12/09 08:11:32;;;;;;;;;23.00;22.50;;;;;6.28;63.28;-13460.28;4996833;28;45589;-93
2022/12/09 08:14:00;;;;;;;;;30.25;21.25;;;;;5.23;63.57;-13771.00;4979433;28;47357;-93
2022/12/09 08:16:26;;;;;;;;;22.75;22.75;;;;;6.13;63.93;-13457.75;4979737;28;45286;-92
2022/12/09 08:18:52;;;;;;;;;23.00;20.67;;;;;5.91;63.67;-13454.13;4998489;28;45421;-92
2022/12/09 08:21:21;;;;;;;;;28.00;21.00;;;;;6.12;63.59;-13457.59;4996788;28;45652;-93
2022/12/09 08:23:47;;;;;;;;;23.75;17.75;;;;;5.46;63.51;-13446.47;4999389;28;46165;-88
2022/12/09 08:26:15;;;;;;;;;22.00;20.50;;;;;5.82;63.70;-13781.31;4995869;28;45402;-91
2022/12/09 08:28:40;;;;;;;;;25.75;22.50;;;;;6.28;64.01;-13789.44;4997733;28;45466;-96
2022/12/09 08:31:11;;;;;;;;;24.75;21.50;;;;;6.29;64.16;-13789.53;4994354;28;45527;-95
2022/12/09 08:33:37;;;;;;;;;20.50;19.25;;;;;6.10;63.78;-14115.28;4987809;28;47294;-96
2022/12/09 08:36:06;;;;;;;;;23.33;19.67;;;;;5.99;63.66;-13784.34;5002613;28;45745;-91
2022/12/09 08:41:41;;;;;;;;;24.75;21.75;;;;;3.15;63.37;-13407.13;5064789;28;45952;-91
2022/12/09 08:44:18;;;;;;;;;26.00;17.00;;;;;6.19;63.48;-13458.72;5269931;22;46377;-95
2022/12/09 08:46:47;;;;;;;;;20.67;18.00;;;;;5.25;63.30;-13442.81;5036949;28;45602;-96
2022/12/09 08:49:16;;;;;;;;;15.00;15.00;;;;;4.46;63.69;-13429.44;5058425;28;45380;-96
2022/12/09 08:51:42;;;;;;;;;20.67;18.00;;;;;5.50;63.58;-13447.16;5050329;28;45309;-96
2022/12/09 08:54:10;;;;;;;;;27.75;22.50;;;;;4.27;63.21;-13426.22;5066797;28;46964;-96
2022/12/09 08:56:35;;;;;;;;;27.33;23.00;;;;;5.15;63.33;-13769.66;5042220;22;45444;-95
2022/12/09 08:59:07;;;;;;;;;24.33;22.33;;;;;5.47;63.26;-13775.31;5010109;28;45574;-88
2022/12/09 09:01:33;;;;;;;;;30.75;24.25;;;;;3.65;63.66;-13743.38;5010490;28;45341;-94
2022/12/09 09:04:07;;;;;;;;;29.25;23.75;;;;;5.46;64.18;-14103.75;5005747;28;45618;-91
2022/12/09 09:06:36;;;;;;;;;28.75;23.50;;;;;4.91;63.50;-13765.34;5009052;28;45373;-94
2022/12/09 09:09:41;;;;;;;;;25.00;23.33;;;;;3.66;63.82;-14071.13;5008213;28;45731;-93
2022/12/09 09:12:06;;;;;;;;;34.00;29.25;;;;;6.43;63.79;-14121.19;5013898;28;45693;-90
2022/12/09 09:23:34;;;;;;;;;33.75;29.75;;;;;4.58;63.38;-13759.72;5598734;22;46755;-86
2022/12/09 09:32:52;;;;;;;;;26.25;23.00;;;;;6.35;63.45;-14119.72;5187630;22;45495;-83
2022/12/09 09:35:18;;;;;;;;;29.00;23.33;;;;;5.81;63.81;-13781.22;5043837;28;45487;-82
2022/12/09 09:37:43;;;;;;;;;24.50;23.25;;;;;6.26;63.55;-13789.00;5031045;28;46152;-82
2022/12/09 09:40:09;;;;;;;;;23.33;23.33;;;;;6.60;63.67;-13795.00;5041710;28;45320;-83
2022/12/09 09:42:42;;;;;;;;;23.50;21.00;;;;;6.66;63.25;-13795.97;5042656;28;45447;-83
2022/12/09 09:45:14;;;;;;;;;24.00;22.67;;;;;6.09;63.52;-14115.09;5039177;28;45528;-83
2022/12/09 09:47:48;;;;;;;;;28.25;23.50;;;;;6.73;63.42;-14126.63;5036683;28;45308;-83
2022/12/09 09:50:40;;;;;;;;;29.50;24.00;;;;;6.92;63.14;-14130.03;5033675;28;45507;-84
2022/12/09 09:53:38;;;;;;;;;26.33;23.00;;;;;6.96;62.91;-14130.66;5040006;28;45375;-84
2022/12/09 09:56:17;;;;;;;;;32.50;28.50;;;;;7.01;62.99;-13802.13;4960061;28;45753;-83
2022/12/09 09:58:58;;;;;;;;;25.00;23.67;;;;;6.67;62.62;-13796.16;4969745;28;46446;-83
2022/12/09 10:01:30;;;;;;;;;22.33;21.67;;;;;7.00;62.35;-13472.41;4969877;28;45274;-82
2022/12/09 10:04:17;;;;;;;;;24.33;22.33;;;;;6.34;62.54;-13461.41;4969146;28;45377;-84
2022/12/09 10:06:57;;;;;;;;;18.33;18.33;;;;;6.72;62.53;-13467.72;4948842;28;45457;-83
2022/12/09 10:09:55;;;;;;;;;25.00;21.33;;;;;6.77;62.74;-13797.94;4980090;28;46529;-84
2022/12/09 10:12:34;;;;;;;;;15.67;15.67;;;;;7.08;62.89;-13803.31;4985681;28;45392;-84
2022/12/09 10:15:08;;;;;;;;;28.00;24.33;;;;;7.06;62.53;-13803.03;4990195;28;45530;-84
2022/12/09 10:17:46;;;;;;;;;26.00;24.50;;;;;7.17;62.65;-13805.00;4956810;28;45618;-83
2022/12/09 10:20:17;;;;;;;;;38.00;32.50;;;;;7.01;62.73;-14131.50;4955170;28;46313;-83
2022/12/09 10:22:52;;;;;;;;;32.75;27.75;;;;;7.18;62.42;-14134.63;4972692;28;46131;-83
2022/12/09 10:25:23;;;;;;;;;25.00;23.00;;;;;7.46;62.25;-14139.69;4973460;28;45561;-83
2022/12/09 10:28:11;;;;;;;;;30.50;28.75;;;;;7.46;62.22;-14139.59;4976840;28;45530;-83
2022/12/09 10:30:37;;;;;;;;;34.33;30.67;;;;;7.38;62.30;-14467.81;4970538;28;46329;-83
2022/12/09 10:33:02;;;;;;;;;29.50;28.25;;;;;7.43;61.83;-14139.03;5046474;28;45304;-82
2022/12/09 10:35:29;;;;;;;;;29.75;26.50;;;;;7.54;61.64;-14141.06;5058124;28;45520;-82
2022/12/09 10:38:06;;;;;;;;;33.25;29.00;;;;;7.59;62.30;-14142.06;5058564;28;45442;-83
2022/12/09 10:40:37;;;;;;;;;38.50;33.00;;;;;7.71;62.09;-14473.97;5056727;28;46105;-83
2022/12/09 10:43:36;;;;;;;;;36.25;32.00;;;;;7.36;62.15;-14137.84;5055187;28;45496;-83
2022/12/09 10:46:03;;;;;;;;;31.00;27.00;;;;;7.40;61.81;-14468.19;5057166;28;45311;-83
2022/12/09 10:48:47;;;;;;;;;35.00;30.00;;;;;7.76;61.92;-14145.09;5057829;28;45389;-84
2022/12/09 10:51:16;;;;;;;;;31.50;28.25;;;;;7.67;61.59;-13813.56;5055138;28;46009;-84
2022/12/09 10:53:46;;;;;;;;;34.50;28.00;;;;;7.70;61.61;-13814.19;5057162;28;45279;-84
2022/12/09 10:56:22;;;;;;;;;40.75;33.50;;;;;7.03;61.76;-13802.41;5057309;28;45442;-83
2022/12/09 10:58:48;;;;;;;;;37.00;33.50;;;;;7.57;61.94;-13811.88;5068725;28;45400;-81
2022/12/09 11:01:14;;;;;;;;;32.25;29.75;;;;;7.68;61.48;-13483.91;5063027;28;46273;-82
2022/12/09 11:03:53;;;;;;;;;33.50;29.50;;;;;7.10;61.45;-13474.22;5057112;28;45530;-82
2022/12/09 11:06:28;;;;;;;;;33.50;26.25;;;;;7.65;61.30;-13153.63;5053480;28;46532;-82
2022/12/09 11:08:58;;;;;;;;;40.75;30.00;;;;;7.30;61.07;-13147.84;5072033;28;45525;-82
2022/12/09 11:11:48;;;;;;;;;31.33;27.67;;;;;7.60;61.40;-13152.81;5076214;28;45464;-82
2022/12/09 11:14:38;;;;;;;;;26.33;24.67;;;;;7.51;61.14;-13151.38;5075322;28;45432;-82
2022/12/09 11:17:18;;;;;;;;;27.00;25.00;;;;;7.68;61.10;-13154.06;5063997;28;45495;-82
2022/12/09 11:19:51;;;;;;;;;24.00;22.75;;;;;7.30;61.35;-13147.84;5065484;28;45393;-82
2022/12/09 11:22:31;;;;;;;;;31.33;27.67;;;;;7.63;61.42;-12823.44;5056417;28;46253;-82
2022/12/09 11:25:24;;;;;;;;;30.50;28.50;;;;;7.41;61.16;-12819.97;5056446;28;45416;-82
2022/12/09 11:27:52;;;;;;;;;33.50;31.00;;;;;7.56;61.10;-13152.22;5057138;28;45354;-82
2022/12/09 11:30:30;;;;;;;;;39.00;32.00;;;;;7.70;61.61;-13154.41;5055925;28;45412;-82
2022/12/09 11:33:04;;;;;;;;;41.50;36.00;;;;;7.80;61.42;-13486.00;5070069;28;47431;-82
2022/12/09 11:35:32;;;;;;;;;40.50;34.50;;;;;7.91;61.95;-13817.84;5056550;28;45392;-82
2022/12/09 11:38:02;;;;;;;;;48.50;39.00;;;;;7.96;62.09;-14148.59;5058589;28;45427;-82
2022/12/09 11:40:29;;;;;;;;;33.75;29.25;;;;;8.06;61.74;-14150.34;5076902;28;45464;-82
2022/12/09 11:42:55;;;;;;;;;38.50;34.50;;;;;8.00;61.71;-13819.38;5076258;28;45709;-82
2022/12/09 11:45:35;;;;;;;;;35.25;28.75;;;;;7.86;61.29;-13486.94;5066928;28;45392;-82
2022/12/09 11:48:05;;;;;;;;;44.25;33.00;;;;;7.80;61.51;-13486.00;5056762;28;45374;-82
2022/12/09 11:50:32;;;;;;;;;42.00;35.50;;;;;7.26;61.49;-13147.19;5056725;28;45334;-83
2022/12/09 11:53:25;;;;;;;;;40.75;33.75;;;;;7.45;61.67;-13150.28;5055909;28;46467;-82
2022/12/09 11:55:59;;;;;;;;;44.75;35.50;;;;;7.77;61.60;-13155.66;5068537;28;45418;-82
2022/12/09 11:58:47;;;;;;;;;38.50;33.75;;;;;7.79;62.01;-13485.81;5076513;28;45555;-82
2022/12/09 12:01:46;;;;;;;;;46.50;40.00;;;;;7.59;61.51;-13152.63;5076649;28;45298;-82
2022/12/09 12:04:22;;;;;;;;;36.75;31.75;;;;;7.47;61.81;-13150.72;5062480;28;47012;-81
2022/12/09 12:07:16;;;;;;;;;39.50;34.00;;;;;7.66;61.69;-13153.72;5068817;28;45330;-81
2022/12/09 12:09:54;;;;;;;;;39.50;34.75;;;;;7.41;61.67;-13149.69;5025568;28;45428;-81